sensor_id;sensor_type;location;lat;lon;timestamp;P1;durP1;ratioP1;P2;durP2;ratioP2
76593;SDS011;65482;50.240;14.302;2023-04-03T00:01:14;5.28;;;2.53;;
76593;SDS011;65482;50.240;14.302;2023-04-03T00:03:40;4.97;;;2.35;;
76593;SDS011;65482;50.240;14.302;2023-04-03T00:06:07;5.45;;;2.70;;
76593;SDS011;65482;50.240;14.302;2023-04-03T00:08:35;6.03;;;2.70;;
76593;SDS011;65482;50.240;14.302;2023-04-03T00:11:01;8.57;;;2.55;;
76593;SDS011;65482;50.240;14.302;2023-04-03T00:13:27;5.57;;;2.60;;
76593;SDS011;65482;50.240;14.302;2023-04-03T00:15:53;5.25;;;2.30;;
76593;SDS011;65482;50.240;14.302;2023-04-03T00:18:19;5.40;;;2.55;;
76593;SDS011;65482;50.240;14.302;2023-04-03T00:20:45;5.28;;;2.35;;
76593;SDS011;65482;50.240;14.302;2023-04-03T00:23:10;5.68;;;2.70;;
76593;SDS011;65482;50.240;14.302;2023-04-03T00:25:37;4.88;;;2.50;;
76593;SDS011;65482;50.240;14.302;2023-04-03T00:28:03;5.20;;;2.47;;
76593;SDS011;65482;50.240;14.302;2023-04-03T00:30:29;4.50;;;2.38;;
76593;SDS011;65482;50.240;14.302;2023-04-03T00:32:55;6.25;;;2.58;;
76593;SDS011;65482;50.240;14.302;2023-04-03T00:35:22;5.32;;;2.47;;
76593;SDS011;65482;50.240;14.302;2023-04-03T00:37:50;4.55;;;2.70;;
76593;SDS011;65482;50.240;14.302;2023-04-03T00:40:17;6.82;;;2.50;;
76593;SDS011;65482;50.240;14.302;2023-04-03T00:42:43;4.57;;;2.30;;
76593;SDS011;65482;50.240;14.302;2023-04-03T00:45:22;6.78;;;2.33;;
76593;SDS011;65482;50.240;14.302;2023-04-03T00:47:50;3.85;;;1.95;;
76593;SDS011;65482;50.240;14.302;2023-04-03T00:50:16;4.63;;;2.03;;
76593;SDS011;65482;50.240;14.302;2023-04-03T00:52:42;5.53;;;2.40;;
76593;SDS011;65482;50.240;14.302;2023-04-03T00:55:12;4.82;;;2.20;;
76593;SDS011;65482;50.240;14.302;2023-04-03T00:57:39;7.10;;;2.67;;
76593;SDS011;65482;50.240;14.302;2023-04-03T01:00:06;4.88;;;2.10;;
76593;SDS011;65482;50.240;14.302;2023-04-03T01:02:35;4.38;;;2.20;;
76593;SDS011;65482;50.240;14.302;2023-04-03T01:05:02;4.97;;;1.90;;
76593;SDS011;65482;50.240;14.302;2023-04-03T01:07:29;3.75;;;1.85;;
76593;SDS011;65482;50.240;14.302;2023-04-03T01:09:57;5.88;;;2.42;;
76593;SDS011;65482;50.240;14.302;2023-04-03T01:12:26;6.28;;;2.25;;
76593;SDS011;65482;50.240;14.302;2023-04-03T01:14:58;6.95;;;2.22;;
76593;SDS011;65482;50.240;14.302;2023-04-03T01:17:29;3.72;;;1.92;;
76593;SDS011;65482;50.240;14.302;2023-04-03T01:23:12;4.13;;;1.60;;
76593;SDS011;65482;50.240;14.302;2023-04-03T01:25:50;7.05;;;2.08;;
76593;SDS011;65482;50.240;14.302;2023-04-03T01:28:22;4.80;;;1.83;;
76593;SDS011;65482;50.240;14.302;2023-04-03T01:33:47;7.50;;;1.98;;
76593;SDS011;65482;50.240;14.302;2023-04-03T01:36:15;5.03;;;1.63;;
76593;SDS011;65482;50.240;14.302;2023-04-03T01:38:49;3.60;;;1.60;;
76593;SDS011;65482;50.240;14.302;2023-04-03T01:41:16;5.00;;;1.45;;
76593;SDS011;65482;50.240;14.302;2023-04-03T01:43:42;3.88;;;1.40;;
76593;SDS011;65482;50.240;14.302;2023-04-03T01:46:08;7.53;;;1.70;;
76593;SDS011;65482;50.240;14.302;2023-04-03T01:48:33;3.97;;;1.50;;
76593;SDS011;65482;50.240;14.302;2023-04-03T01:50:59;4.88;;;1.42;;
76593;SDS011;65482;50.240;14.302;2023-04-03T01:53:24;3.45;;;1.25;;
76593;SDS011;65482;50.240;14.302;2023-04-03T01:55:50;6.20;;;1.80;;
76593;SDS011;65482;50.240;14.302;2023-04-03T01:58:16;3.38;;;1.40;;
76593;SDS011;65482;50.240;14.302;2023-04-03T02:00:42;4.50;;;1.65;;
76593;SDS011;65482;50.240;14.302;2023-04-03T02:03:07;7.20;;;1.77;;
76593;SDS011;65482;50.240;14.302;2023-04-03T02:05:33;4.22;;;1.27;;
76593;SDS011;65482;50.240;14.302;2023-04-03T02:07:59;3.10;;;1.52;;
76593;SDS011;65482;50.240;14.302;2023-04-03T02:10:25;3.25;;;1.40;;
76593;SDS011;65482;50.240;14.302;2023-04-03T02:12:51;3.47;;;1.40;;
76593;SDS011;65482;50.240;14.302;2023-04-03T02:15:17;3.75;;;1.38;;
76593;SDS011;65482;50.240;14.302;2023-04-03T02:17:43;5.18;;;1.73;;
76593;SDS011;65482;50.240;14.302;2023-04-03T02:20:09;3.95;;;1.30;;
76593;SDS011;65482;50.240;14.302;2023-04-03T02:22:35;5.68;;;1.40;;
76593;SDS011;65482;50.240;14.302;2023-04-03T02:25:01;3.45;;;1.48;;
76593;SDS011;65482;50.240;14.302;2023-04-03T02:27:27;4.45;;;1.27;;
76593;SDS011;65482;50.240;14.302;2023-04-03T02:29:53;3.53;;;1.30;;
76593;SDS011;65482;50.240;14.302;2023-04-03T02:32:18;3.88;;;1.20;;
76593;SDS011;65482;50.240;14.302;2023-04-03T02:34:45;6.28;;;1.55;;
76593;SDS011;65482;50.240;14.302;2023-04-03T02:37:10;4.05;;;1.50;;
76593;SDS011;65482;50.240;14.302;2023-04-03T02:39:36;5.07;;;1.40;;
76593;SDS011;65482;50.240;14.302;2023-04-03T02:42:02;4.68;;;1.35;;
76593;SDS011;65482;50.240;14.302;2023-04-03T02:44:27;3.00;;;1.48;;
76593;SDS011;65482;50.240;14.302;2023-04-03T02:46:53;3.88;;;1.40;;
76593;SDS011;65482;50.240;14.302;2023-04-03T02:49:19;3.90;;;1.33;;
76593;SDS011;65482;50.240;14.302;2023-04-03T02:51:44;2.95;;;1.30;;
76593;SDS011;65482;50.240;14.302;2023-04-03T02:54:11;3.53;;;1.40;;
76593;SDS011;65482;50.240;14.302;2023-04-03T02:56:37;5.82;;;1.60;;
76593;SDS011;65482;50.240;14.302;2023-04-03T02:59:02;3.55;;;1.42;;
76593;SDS011;65482;50.240;14.302;2023-04-03T03:01:28;4.57;;;1.30;;
76593;SDS011;65482;50.240;14.302;2023-04-03T03:03:57;4.43;;;1.50;;
76593;SDS011;65482;50.240;14.302;2023-04-03T03:06:23;8.73;;;1.85;;
76593;SDS011;65482;50.240;14.302;2023-04-03T03:08:49;7.80;;;1.70;;
76593;SDS011;65482;50.240;14.302;2023-04-03T03:11:14;2.58;;;1.33;;
76593;SDS011;65482;50.240;14.302;2023-04-03T03:13:40;4.18;;;1.40;;
76593;SDS011;65482;50.240;14.302;2023-04-03T03:16:06;5.35;;;1.55;;
76593;SDS011;65482;50.240;14.302;2023-04-03T03:18:32;8.25;;;1.83;;
76593;SDS011;65482;50.240;14.302;2023-04-03T03:20:59;4.78;;;1.65;;
76593;SDS011;65482;50.240;14.302;2023-04-03T03:23:26;5.60;;;1.40;;
76593;SDS011;65482;50.240;14.302;2023-04-03T03:25:57;4.97;;;1.42;;
76593;SDS011;65482;50.240;14.302;2023-04-03T03:28:25;7.05;;;1.95;;
76593;SDS011;65482;50.240;14.302;2023-04-03T03:30:52;2.88;;;1.50;;
76593;SDS011;65482;50.240;14.302;2023-04-03T03:33:18;4.40;;;1.83;;
76593;SDS011;65482;50.240;14.302;2023-04-03T03:35:44;4.70;;;1.88;;
76593;SDS011;65482;50.240;14.302;2023-04-03T03:38:10;5.53;;;1.80;;
76593;SDS011;65482;50.240;14.302;2023-04-03T03:40:36;2.47;;;1.50;;
76593;SDS011;65482;50.240;14.302;2023-04-03T03:43:02;4.10;;;2.08;;
76593;SDS011;65482;50.240;14.302;2023-04-03T03:45:27;6.90;;;2.28;;
76593;SDS011;65482;50.240;14.302;2023-04-03T03:47:53;6.25;;;1.90;;
76593;SDS011;65482;50.240;14.302;2023-04-03T03:50:19;5.10;;;1.60;;
76593;SDS011;65482;50.240;14.302;2023-04-03T03:52:45;4.05;;;1.77;;
76593;SDS011;65482;50.240;14.302;2023-04-03T03:55:11;5.97;;;1.73;;
76593;SDS011;65482;50.240;14.302;2023-04-03T03:57:37;6.13;;;1.75;;
76593;SDS011;65482;50.240;14.302;2023-04-03T04:00:03;7.55;;;2.08;;
76593;SDS011;65482;50.240;14.302;2023-04-03T04:02:29;5.82;;;1.92;;
76593;SDS011;65482;50.240;14.302;2023-04-03T04:04:55;5.32;;;1.98;;
76593;SDS011;65482;50.240;14.302;2023-04-03T04:07:21;5.93;;;1.80;;
76593;SDS011;65482;50.240;14.302;2023-04-03T04:09:47;4.63;;;1.92;;
76593;SDS011;65482;50.240;14.302;2023-04-03T04:12:13;5.55;;;2.00;;
76593;SDS011;65482;50.240;14.302;2023-04-03T04:14:38;4.45;;;1.95;;
76593;SDS011;65482;50.240;14.302;2023-04-03T04:17:05;3.92;;;1.90;;
76593;SDS011;65482;50.240;14.302;2023-04-03T04:19:30;7.20;;;1.83;;
76593;SDS011;65482;50.240;14.302;2023-04-03T04:21:56;5.97;;;1.80;;
76593;SDS011;65482;50.240;14.302;2023-04-03T04:24:22;7.38;;;1.80;;
76593;SDS011;65482;50.240;14.302;2023-04-03T04:26:50;5.15;;;2.13;;
76593;SDS011;65482;50.240;14.302;2023-04-03T04:29:16;6.00;;;2.10;;
76593;SDS011;65482;50.240;14.302;2023-04-03T04:31:42;6.93;;;2.47;;
76593;SDS011;65482;50.240;14.302;2023-04-03T04:34:07;3.67;;;1.95;;
76593;SDS011;65482;50.240;14.302;2023-04-03T04:36:33;5.60;;;2.10;;
76593;SDS011;65482;50.240;14.302;2023-04-03T04:38:58;5.43;;;2.00;;
76593;SDS011;65482;50.240;14.302;2023-04-03T04:41:25;2.35;;;1.70;;
76593;SDS011;65482;50.240;14.302;2023-04-03T04:43:51;5.22;;;2.65;;
76593;SDS011;65482;50.240;14.302;2023-04-03T04:46:18;5.53;;;2.42;;
76593;SDS011;65482;50.240;14.302;2023-04-03T04:48:44;6.55;;;2.65;;
76593;SDS011;65482;50.240;14.302;2023-04-03T04:51:10;5.22;;;2.53;;
76593;SDS011;65482;50.240;14.302;2023-04-03T04:53:37;7.43;;;2.05;;
76593;SDS011;65482;50.240;14.302;2023-04-03T04:56:03;6.57;;;2.58;;
76593;SDS011;65482;50.240;14.302;2023-04-03T04:58:28;5.07;;;1.85;;
76593;SDS011;65482;50.240;14.302;2023-04-03T05:00:58;7.22;;;2.30;;
76593;SDS011;65482;50.240;14.302;2023-04-03T05:03:25;8.20;;;2.53;;
76593;SDS011;65482;50.240;14.302;2023-04-03T05:05:51;6.45;;;2.10;;
76593;SDS011;65482;50.240;14.302;2023-04-03T05:08:16;5.40;;;2.85;;
76593;SDS011;65482;50.240;14.302;2023-04-03T05:10:42;5.28;;;2.20;;
76593;SDS011;65482;50.240;14.302;2023-04-03T05:13:10;7.60;;;2.28;;
76593;SDS011;65482;50.240;14.302;2023-04-03T05:19:51;8.50;;;2.78;;
76593;SDS011;65482;50.240;14.302;2023-04-03T05:22:17;5.43;;;2.60;;
76593;SDS011;65482;50.240;14.302;2023-04-03T05:24:45;10.88;;;2.72;;
76593;SDS011;65482;50.240;14.302;2023-04-03T05:27:10;8.20;;;2.83;;
76593;SDS011;65482;50.240;14.302;2023-04-03T05:29:36;7.75;;;2.60;;
76593;SDS011;65482;50.240;14.302;2023-04-03T05:32:02;4.75;;;2.10;;
76593;SDS011;65482;50.240;14.302;2023-04-03T05:34:32;4.43;;;1.98;;
76593;SDS011;65482;50.240;14.302;2023-04-03T05:56:38;5.18;;;2.47;;
76593;SDS011;65482;50.240;14.302;2023-04-03T09:41:34;8.15;;;3.92;;
76593;SDS011;65482;50.240;14.302;2023-04-03T09:44:00;3.90;;;1.92;;
76593;SDS011;65482;50.240;14.302;2023-04-03T09:46:30;2.97;;;1.90;;
76593;SDS011;65482;50.240;14.302;2023-04-03T09:48:59;3.28;;;1.70;;
76593;SDS011;65482;50.240;14.302;2023-04-03T09:51:26;4.40;;;2.33;;
76593;SDS011;65482;50.240;14.302;2023-04-03T09:53:54;5.18;;;1.85;;
76593;SDS011;65482;50.240;14.302;2023-04-03T09:58:49;3.00;;;1.88;;
76593;SDS011;65482;50.240;14.302;2023-04-03T10:01:23;4.57;;;2.10;;
76593;SDS011;65482;50.240;14.302;2023-04-03T10:04:02;3.42;;;1.50;;
76593;SDS011;65482;50.240;14.302;2023-04-03T10:06:31;3.50;;;1.75;;
76593;SDS011;65482;50.240;14.302;2023-04-03T10:09:02;2.55;;;1.63;;
76593;SDS011;65482;50.240;14.302;2023-04-03T10:11:30;4.43;;;1.80;;
76593;SDS011;65482;50.240;14.302;2023-04-03T10:13:57;4.57;;;1.60;;
76593;SDS011;65482;50.240;14.302;2023-04-03T10:16:51;2.45;;;1.60;;
76593;SDS011;65482;50.240;14.302;2023-04-03T10:22:08;3.13;;;1.55;;
76593;SDS011;65482;50.240;14.302;2023-04-03T10:40:50;3.53;;;1.55;;
76593;SDS011;65482;50.240;14.302;2023-04-03T10:56:44;4.82;;;1.75;;
76593;SDS011;65482;50.240;14.302;2023-04-03T11:02:07;4.00;;;1.65;;
76593;SDS011;65482;50.240;14.302;2023-04-03T11:04:43;3.25;;;1.60;;
76593;SDS011;65482;50.240;14.302;2023-04-03T11:09:42;1.92;;;1.50;;
76593;SDS011;65482;50.240;14.302;2023-04-03T11:12:23;3.00;;;1.67;;
76593;SDS011;65482;50.240;14.302;2023-04-03T11:14:53;4.68;;;1.73;;
76593;SDS011;65482;50.240;14.302;2023-04-03T11:17:26;4.40;;;1.42;;
76593;SDS011;65482;50.240;14.302;2023-04-03T11:20:03;3.25;;;1.70;;
76593;SDS011;65482;50.240;14.302;2023-04-03T11:22:48;3.20;;;1.80;;
76593;SDS011;65482;50.240;14.302;2023-04-03T11:25:20;4.00;;;2.10;;
76593;SDS011;65482;50.240;14.302;2023-04-03T11:30:33;2.90;;;1.60;;
76593;SDS011;65482;50.240;14.302;2023-04-03T11:36:03;2.63;;;1.58;;
76593;SDS011;65482;50.240;14.302;2023-04-03T11:38:33;3.08;;;1.80;;
76593;SDS011;65482;50.240;14.302;2023-04-03T11:41:04;4.70;;;1.40;;
76593;SDS011;65482;50.240;14.302;2023-04-03T11:43:33;6.25;;;1.52;;
76593;SDS011;65482;50.240;14.302;2023-04-03T11:46:05;4.15;;;1.45;;
76593;SDS011;65482;50.240;14.302;2023-04-03T11:51:01;3.42;;;1.30;;
76593;SDS011;65482;50.240;14.302;2023-04-03T11:53:47;4.60;;;1.50;;
76593;SDS011;65482;50.240;14.302;2023-04-03T11:59:14;5.43;;;1.45;;
76593;SDS011;65482;50.240;14.302;2023-04-03T12:01:46;4.00;;;1.23;;
76593;SDS011;65482;50.240;14.302;2023-04-03T12:04:15;3.50;;;1.40;;
76593;SDS011;65482;50.240;14.302;2023-04-03T12:11:59;2.60;;;1.38;;
76593;SDS011;65482;50.240;14.302;2023-04-03T12:14:27;2.22;;;1.40;;
76593;SDS011;65482;50.240;14.302;2023-04-03T12:16:54;4.07;;;1.45;;
76593;SDS011;65482;50.240;14.302;2023-04-03T12:19:38;2.65;;;1.25;;
76593;SDS011;65482;50.240;14.302;2023-04-03T12:22:18;3.42;;;1.52;;
76593;SDS011;65482;50.240;14.302;2023-04-03T12:24:51;2.83;;;1.30;;
76593;SDS011;65482;50.240;14.302;2023-04-03T12:27:21;6.13;;;1.90;;
76593;SDS011;65482;50.240;14.302;2023-04-03T12:30:04;4.35;;;1.42;;
76593;SDS011;65482;50.240;14.302;2023-04-03T12:38:15;4.35;;;1.58;;
76593;SDS011;65482;50.240;14.302;2023-04-03T12:46:22;2.13;;;1.13;;
76593;SDS011;65482;50.240;14.302;2023-04-03T12:48:54;2.33;;;1.23;;
76593;SDS011;65482;50.240;14.302;2023-04-03T12:54:01;3.28;;;1.20;;
76593;SDS011;65482;50.240;14.302;2023-04-03T12:56:41;3.20;;;1.20;;
76593;SDS011;65482;50.240;14.302;2023-04-03T13:05:04;5.32;;;1.50;;
76593;SDS011;65482;50.240;14.302;2023-04-03T13:07:39;1.50;;;1.10;;
76593;SDS011;65482;50.240;14.302;2023-04-03T13:48:34;3.67;;;1.50;;
76593;SDS011;65482;50.240;14.302;2023-04-03T13:51:18;4.28;;;1.55;;
76593;SDS011;65482;50.240;14.302;2023-04-03T13:53:58;2.00;;;1.13;;
76593;SDS011;65482;50.240;14.302;2023-04-03T13:56:36;4.07;;;1.25;;
76593;SDS011;65482;50.240;14.302;2023-04-03T14:03:00;1.20;;;0.82;;
76593;SDS011;65482;50.240;14.302;2023-04-03T14:06:31;4.35;;;1.30;;
76593;SDS011;65482;50.240;14.302;2023-04-03T14:09:08;1.98;;;1.08;;
76593;SDS011;65482;50.240;14.302;2023-04-03T14:11:55;3.17;;;1.10;;
76593;SDS011;65482;50.240;14.302;2023-04-03T14:15:01;1.52;;;1.00;;
76593;SDS011;65482;50.240;14.302;2023-04-03T14:17:45;2.58;;;1.08;;
76593;SDS011;65482;50.240;14.302;2023-04-03T14:20:45;1.92;;;0.98;;
76593;SDS011;65482;50.240;14.302;2023-04-03T14:23:41;5.63;;;1.77;;
76593;SDS011;65482;50.240;14.302;2023-04-03T14:26:11;2.97;;;1.30;;
76593;SDS011;65482;50.240;14.302;2023-04-03T14:28:38;2.33;;;1.10;;
76593;SDS011;65482;50.240;14.302;2023-04-03T14:31:05;3.75;;;1.10;;
76593;SDS011;65482;50.240;14.302;2023-04-03T14:33:32;2.42;;;1.02;;
76593;SDS011;65482;50.240;14.302;2023-04-03T14:36:01;3.53;;;1.52;;
76593;SDS011;65482;50.240;14.302;2023-04-03T14:38:36;3.22;;;1.33;;
76593;SDS011;65482;50.240;14.302;2023-04-03T14:41:02;2.67;;;1.15;;
76593;SDS011;65482;50.240;14.302;2023-04-03T14:43:28;3.35;;;1.20;;
76593;SDS011;65482;50.240;14.302;2023-04-03T14:45:54;3.45;;;1.10;;
76593;SDS011;65482;50.240;14.302;2023-04-03T14:48:20;2.22;;;1.15;;
76593;SDS011;65482;50.240;14.302;2023-04-03T14:50:49;2.25;;;1.10;;
76593;SDS011;65482;50.240;14.302;2023-04-03T14:53:17;4.30;;;1.40;;
76593;SDS011;65482;50.240;14.302;2023-04-03T14:55:48;2.33;;;0.90;;
76593;SDS011;65482;50.240;14.302;2023-04-03T14:58:15;2.55;;;1.10;;
76593;SDS011;65482;50.240;14.302;2023-04-03T15:00:42;2.03;;;1.02;;
76593;SDS011;65482;50.240;14.302;2023-04-03T15:03:15;3.83;;;1.50;;
76593;SDS011;65482;50.240;14.302;2023-04-03T15:05:44;4.07;;;1.48;;
76593;SDS011;65482;50.240;14.302;2023-04-03T15:08:18;5.22;;;1.52;;
76593;SDS011;65482;50.240;14.302;2023-04-03T15:10:46;3.45;;;1.48;;
76593;SDS011;65482;50.240;14.302;2023-04-03T15:13:12;3.55;;;1.40;;
76593;SDS011;65482;50.240;14.302;2023-04-03T15:15:38;2.00;;;1.20;;
76593;SDS011;65482;50.240;14.302;2023-04-03T15:18:04;3.30;;;1.45;;
76593;SDS011;65482;50.240;14.302;2023-04-03T15:20:30;2.88;;;1.15;;
76593;SDS011;65482;50.240;14.302;2023-04-03T15:22:58;4.75;;;1.33;;
76593;SDS011;65482;50.240;14.302;2023-04-03T15:25:27;2.72;;;1.40;;
76593;SDS011;65482;50.240;14.302;2023-04-03T15:27:54;3.15;;;1.40;;
76593;SDS011;65482;50.240;14.302;2023-04-03T15:30:21;3.72;;;1.25;;
76593;SDS011;65482;50.240;14.302;2023-04-03T15:32:46;1.92;;;1.27;;
76593;SDS011;65482;50.240;14.302;2023-04-03T15:35:13;3.38;;;1.40;;
76593;SDS011;65482;50.240;14.302;2023-04-03T15:37:39;3.95;;;2.00;;
76593;SDS011;65482;50.240;14.302;2023-04-03T15:40:05;4.22;;;2.78;;
76593;SDS011;65482;50.240;14.302;2023-04-03T15:42:32;8.57;;;5.22;;
76593;SDS011;65482;50.240;14.302;2023-04-03T15:44:58;7.20;;;4.10;;
76593;SDS011;65482;50.240;14.302;2023-04-03T15:47:24;2.92;;;1.58;;
76593;SDS011;65482;50.240;14.302;2023-04-03T15:49:52;4.95;;;2.03;;
76593;SDS011;65482;50.240;14.302;2023-04-03T15:52:19;2.83;;;1.50;;
76593;SDS011;65482;50.240;14.302;2023-04-03T15:54:45;5.75;;;1.70;;
76593;SDS011;65482;50.240;14.302;2023-04-03T15:57:11;2.30;;;1.27;;
76593;SDS011;65482;50.240;14.302;2023-04-03T15:59:36;2.10;;;1.30;;
76593;SDS011;65482;50.240;14.302;2023-04-03T16:02:02;2.90;;;1.40;;
76593;SDS011;65482;50.240;14.302;2023-04-03T16:04:32;4.72;;;1.58;;
76593;SDS011;65482;50.240;14.302;2023-04-03T16:07:00;2.88;;;1.55;;
76593;SDS011;65482;50.240;14.302;2023-04-03T16:09:27;2.45;;;1.50;;
76593;SDS011;65482;50.240;14.302;2023-04-03T16:11:52;1.95;;;1.10;;
76593;SDS011;65482;50.240;14.302;2023-04-03T16:14:18;2.67;;;1.20;;
76593;SDS011;65482;50.240;14.302;2023-04-03T16:16:44;2.30;;;1.27;;
76593;SDS011;65482;50.240;14.302;2023-04-03T16:19:09;3.63;;;1.30;;
76593;SDS011;65482;50.240;14.302;2023-04-03T16:21:35;4.40;;;1.50;;
76593;SDS011;65482;50.240;14.302;2023-04-03T16:24:01;3.65;;;2.03;;
76593;SDS011;65482;50.240;14.302;2023-04-03T16:26:27;4.18;;;1.50;;
76593;SDS011;65482;50.240;14.302;2023-04-03T16:28:53;4.80;;;1.48;;
76593;SDS011;65482;50.240;14.302;2023-04-03T16:31:19;3.58;;;1.50;;
76593;SDS011;65482;50.240;14.302;2023-04-03T16:33:47;5.03;;;1.70;;
76593;SDS011;65482;50.240;14.302;2023-04-03T16:36:13;2.50;;;1.40;;
76593;SDS011;65482;50.240;14.302;2023-04-03T16:38:39;4.68;;;1.45;;
76593;SDS011;65482;50.240;14.302;2023-04-03T16:41:04;2.92;;;1.70;;
76593;SDS011;65482;50.240;14.302;2023-04-03T16:43:31;3.13;;;1.63;;
76593;SDS011;65482;50.240;14.302;2023-04-03T16:45:57;4.07;;;2.22;;
76593;SDS011;65482;50.240;14.302;2023-04-03T16:48:23;4.00;;;1.60;;
76593;SDS011;65482;50.240;14.302;2023-04-03T16:50:49;8.07;;;3.40;;
76593;SDS011;65482;50.240;14.302;2023-04-03T16:53:22;3.35;;;2.05;;
76593;SDS011;65482;50.240;14.302;2023-04-03T16:55:49;3.40;;;1.83;;
76593;SDS011;65482;50.240;14.302;2023-04-03T16:58:16;6.97;;;2.45;;
76593;SDS011;65482;50.240;14.302;2023-04-03T17:00:41;3.83;;;2.05;;
76593;SDS011;65482;50.240;14.302;2023-04-03T17:03:08;3.03;;;1.65;;
76593;SDS011;65482;50.240;14.302;2023-04-03T17:05:34;6.38;;;2.97;;
76593;SDS011;65482;50.240;14.302;2023-04-03T17:08:01;4.55;;;1.83;;
76593;SDS011;65482;50.240;14.302;2023-04-03T17:10:27;4.28;;;1.67;;
76593;SDS011;65482;50.240;14.302;2023-04-03T17:12:53;3.15;;;1.88;;
76593;SDS011;65482;50.240;14.302;2023-04-03T17:15:18;4.68;;;2.35;;
76593;SDS011;65482;50.240;14.302;2023-04-03T17:17:46;5.90;;;1.80;;
76593;SDS011;65482;50.240;14.302;2023-04-03T17:20:13;5.00;;;2.20;;
76593;SDS011;65482;50.240;14.302;2023-04-03T17:22:39;4.43;;;1.92;;
76593;SDS011;65482;50.240;14.302;2023-04-03T17:25:05;6.10;;;2.13;;
76593;SDS011;65482;50.240;14.302;2023-04-03T17:27:31;6.75;;;1.70;;
76593;SDS011;65482;50.240;14.302;2023-04-03T17:29:57;4.13;;;2.13;;
76593;SDS011;65482;50.240;14.302;2023-04-03T17:32:23;2.78;;;1.52;;
76593;SDS011;65482;50.240;14.302;2023-04-03T17:34:50;7.07;;;2.20;;
76593;SDS011;65482;50.240;14.302;2023-04-03T17:37:17;6.68;;;2.03;;
76593;SDS011;65482;50.240;14.302;2023-04-03T17:39:43;6.50;;;2.58;;
76593;SDS011;65482;50.240;14.302;2023-04-03T17:42:09;5.63;;;2.78;;
76593;SDS011;65482;50.240;14.302;2023-04-03T17:44:34;3.45;;;1.80;;
76593;SDS011;65482;50.240;14.302;2023-04-03T17:47:00;3.13;;;1.80;;
76593;SDS011;65482;50.240;14.302;2023-04-03T17:49:27;6.55;;;2.00;;
76593;SDS011;65482;50.240;14.302;2023-04-03T17:51:52;5.18;;;2.13;;
76593;SDS011;65482;50.240;14.302;2023-04-03T17:54:18;6.88;;;2.65;;
76593;SDS011;65482;50.240;14.302;2023-04-03T17:56:44;5.10;;;2.20;;
76593;SDS011;65482;50.240;14.302;2023-04-03T17:59:13;4.28;;;2.33;;
76593;SDS011;65482;50.240;14.302;2023-04-03T18:01:39;6.00;;;2.45;;
76593;SDS011;65482;50.240;14.302;2023-04-03T18:04:08;7.18;;;2.55;;
76593;SDS011;65482;50.240;14.302;2023-04-03T18:06:39;8.70;;;2.70;;
76593;SDS011;65482;50.240;14.302;2023-04-03T18:11:40;6.43;;;3.40;;
76593;SDS011;65482;50.240;14.302;2023-04-03T18:14:06;6.25;;;3.30;;
76593;SDS011;65482;50.240;14.302;2023-04-03T18:16:33;9.75;;;3.63;;
76593;SDS011;65482;50.240;14.302;2023-04-03T18:18:59;8.25;;;3.38;;
76593;SDS011;65482;50.240;14.302;2023-04-03T18:21:25;8.98;;;3.53;;
76593;SDS011;65482;50.240;14.302;2023-04-03T18:23:52;11.25;;;4.10;;
76593;SDS011;65482;50.240;14.302;2023-04-03T18:26:21;7.63;;;3.60;;
76593;SDS011;65482;50.240;14.302;2023-04-03T18:28:52;7.05;;;3.20;;
76593;SDS011;65482;50.240;14.302;2023-04-03T18:31:21;6.00;;;3.13;;
76593;SDS011;65482;50.240;14.302;2023-04-03T18:33:50;6.10;;;2.72;;
76593;SDS011;65482;50.240;14.302;2023-04-03T18:36:19;5.60;;;2.85;;
76593;SDS011;65482;50.240;14.302;2023-04-03T18:38:45;5.28;;;2.60;;
76593;SDS011;65482;50.240;14.302;2023-04-03T18:41:11;5.38;;;2.45;;
76593;SDS011;65482;50.240;14.302;2023-04-03T18:43:38;6.30;;;3.40;;
76593;SDS011;65482;50.240;14.302;2023-04-03T18:46:05;9.20;;;3.47;;
76593;SDS011;65482;50.240;14.302;2023-04-03T18:48:32;8.32;;;3.20;;
76593;SDS011;65482;50.240;14.302;2023-04-03T18:50:59;6.55;;;3.35;;
76593;SDS011;65482;50.240;14.302;2023-04-03T18:53:26;7.63;;;2.88;;
76593;SDS011;65482;50.240;14.302;2023-04-03T18:55:52;5.22;;;2.95;;
76593;SDS011;65482;50.240;14.302;2023-04-03T18:58:18;5.18;;;2.58;;
76593;SDS011;65482;50.240;14.302;2023-04-03T19:00:44;8.70;;;2.72;;
76593;SDS011;65482;50.240;14.302;2023-04-03T19:03:10;5.00;;;2.47;;
76593;SDS011;65482;50.240;14.302;2023-04-03T19:05:38;5.30;;;2.55;;
76593;SDS011;65482;50.240;14.302;2023-04-03T19:08:04;7.43;;;2.85;;
76593;SDS011;65482;50.240;14.302;2023-04-03T19:10:30;6.32;;;3.00;;
76593;SDS011;65482;50.240;14.302;2023-04-03T19:12:56;6.93;;;2.90;;
76593;SDS011;65482;50.240;14.302;2023-04-03T19:15:22;6.63;;;3.13;;
76593;SDS011;65482;50.240;14.302;2023-04-03T19:17:49;6.47;;;3.08;;
76593;SDS011;65482;50.240;14.302;2023-04-03T19:20:15;9.02;;;3.05;;
76593;SDS011;65482;50.240;14.302;2023-04-03T19:22:41;7.45;;;2.88;;
76593;SDS011;65482;50.240;14.302;2023-04-03T19:25:08;8.68;;;3.08;;
76593;SDS011;65482;50.240;14.302;2023-04-03T19:27:36;10.32;;;3.25;;
76593;SDS011;65482;50.240;14.302;2023-04-03T19:30:03;8.30;;;2.70;;
76593;SDS011;65482;50.240;14.302;2023-04-03T19:32:32;6.97;;;2.88;;
76593;SDS011;65482;50.240;14.302;2023-04-03T19:34:59;6.03;;;3.20;;
76593;SDS011;65482;50.240;14.302;2023-04-03T19:37:25;5.45;;;2.80;;
76593;SDS011;65482;50.240;14.302;2023-04-03T19:39:52;4.30;;;2.30;;
76593;SDS011;65482;50.240;14.302;2023-04-03T19:42:17;6.57;;;2.65;;
76593;SDS011;65482;50.240;14.302;2023-04-03T19:44:44;5.05;;;2.28;;
76593;SDS011;65482;50.240;14.302;2023-04-03T19:47:11;6.25;;;2.30;;
76593;SDS011;65482;50.240;14.302;2023-04-03T19:49:37;5.20;;;2.45;;
76593;SDS011;65482;50.240;14.302;2023-04-03T19:52:03;5.32;;;2.47;;
76593;SDS011;65482;50.240;14.302;2023-04-03T19:54:29;4.00;;;2.63;;
76593;SDS011;65482;50.240;14.302;2023-04-03T19:56:55;7.90;;;3.00;;
76593;SDS011;65482;50.240;14.302;2023-04-03T19:59:22;7.53;;;2.97;;
76593;SDS011;65482;50.240;14.302;2023-04-03T20:01:47;5.78;;;2.78;;
76593;SDS011;65482;50.240;14.302;2023-04-03T20:04:13;7.53;;;2.90;;
76593;SDS011;65482;50.240;14.302;2023-04-03T20:06:39;4.65;;;2.63;;
76593;SDS011;65482;50.240;14.302;2023-04-03T20:09:04;5.60;;;2.50;;
76593;SDS011;65482;50.240;14.302;2023-04-03T20:11:32;7.72;;;2.47;;
76593;SDS011;65482;50.240;14.302;2023-04-03T20:13:58;6.20;;;2.13;;
76593;SDS011;65482;50.240;14.302;2023-04-03T20:16:24;6.60;;;2.75;;
76593;SDS011;65482;50.240;14.302;2023-04-03T20:18:50;8.43;;;2.67;;
76593;SDS011;65482;50.240;14.302;2023-04-03T20:21:19;4.10;;;1.98;;
76593;SDS011;65482;50.240;14.302;2023-04-03T20:23:45;4.78;;;2.00;;
76593;SDS011;65482;50.240;14.302;2023-04-03T20:26:17;5.60;;;2.42;;
76593;SDS011;65482;50.240;14.302;2023-04-03T20:28:51;5.28;;;2.05;;
76593;SDS011;65482;50.240;14.302;2023-04-03T20:31:18;4.40;;;2.00;;
76593;SDS011;65482;50.240;14.302;2023-04-03T20:33:44;5.88;;;1.92;;
76593;SDS011;65482;50.240;14.302;2023-04-03T20:36:11;4.55;;;2.03;;
76593;SDS011;65482;50.240;14.302;2023-04-03T20:38:37;4.75;;;2.33;;
76593;SDS011;65482;50.240;14.302;2023-04-03T20:41:03;5.47;;;1.88;;
76593;SDS011;65482;50.240;14.302;2023-04-03T20:43:29;3.00;;;1.75;;
76593;SDS011;65482;50.240;14.302;2023-04-03T20:45:58;4.07;;;2.00;;
76593;SDS011;65482;50.240;14.302;2023-04-03T20:48:24;3.10;;;1.73;;
76593;SDS011;65482;50.240;14.302;2023-04-03T20:50:50;4.57;;;2.00;;
76593;SDS011;65482;50.240;14.302;2023-04-03T20:53:16;4.80;;;2.25;;